createdAt,value
2018-01-15T00:01:33.507Z,-0.80
2018-01-15T00:03:59.960Z,-0.80
2018-01-15T00:06:26.362Z,-1.20
2018-01-15T00:08:53.083Z,-1.50
2018-01-15T00:11:20.205Z,-1.60
2018-01-15T00:13:46.615Z,-1.60
2018-01-15T00:16:13.046Z,-1.50
2018-01-15T00:18:39.427Z,-1.20
2018-01-15T00:21:06.569Z,-0.90
2018-01-15T00:23:32.983Z,-1.00
2018-01-15T00:25:59.378Z,-1.30
2018-01-15T00:28:25.764Z,-1.40
2018-01-15T00:30:52.166Z,-1.60
2018-01-15T00:33:18.564Z,-1.50
2018-01-15T00:35:45.684Z,-1.70
2018-01-15T00:38:12.799Z,-1.80
2018-01-15T00:40:39.229Z,-1.80
2018-01-15T00:43:05.624Z,-2.00
2018-01-15T00:45:32.003Z,-1.90
2018-01-15T00:47:58.403Z,-1.70
2018-01-15T00:50:24.819Z,-1.70
2018-01-15T00:52:51.197Z,-1.70
2018-01-15T00:55:17.583Z,-1.80
2018-01-15T00:57:43.968Z,-1.90
2018-01-15T01:00:10.350Z,-1.70
2018-01-15T01:02:36.752Z,-1.10
2018-01-15T01:05:03.927Z,-1.30
2018-01-15T01:07:31.293Z,-1.30
2018-01-15T01:09:57.681Z,-1.10
2018-01-15T01:12:24.822Z,-0.80
2018-01-15T01:14:51.191Z,-0.90
2018-01-15T01:17:17.574Z,-1.10
2018-01-15T01:19:43.946Z,-1.20
2018-01-15T01:22:10.509Z,-1.50
2018-01-15T01:24:36.903Z,-1.60
2018-01-15T01:27:04.023Z,-1.70
2018-01-15T01:29:30.435Z,-1.70
2018-01-15T01:31:56.806Z,-1.50
2018-01-15T01:34:23.185Z,-1.60
2018-01-15T01:36:49.703Z,-1.50
2018-01-15T01:39:16.127Z,-1.50
2018-01-15T01:41:42.524Z,-1.10
2018-01-15T01:44:08.899Z,-1.60
2018-01-15T01:46:35.285Z,-1.50
2018-01-15T01:49:01.699Z,-1.40
2018-01-15T01:51:28.102Z,-1.50
2018-01-15T01:53:54.520Z,-1.90
2018-01-15T01:56:21.629Z,-1.50
2018-01-15T01:58:47.991Z,-1.50
2018-01-15T02:01:15.109Z,-1.10
2018-01-15T02:03:41.520Z,-1.10
2018-01-15T02:06:07.898Z,-1.10
2018-01-15T02:08:35.951Z,-1.00
2018-01-15T02:11:02.353Z,-1.00
2018-01-15T02:13:28.741Z,-1.10
2018-01-15T02:15:55.864Z,-1.10
2018-01-15T02:18:23.739Z,-1.30
2018-01-15T02:20:50.116Z,-1.40
2018-01-15T02:23:16.523Z,-1.50
2018-01-15T02:25:43.036Z,-1.70
2018-01-15T02:28:09.471Z,-1.70
2018-01-15T02:30:36.655Z,-1.70
2018-01-15T02:33:03.060Z,-1.70
2018-01-15T02:35:30.180Z,-1.50
2018-01-15T02:37:56.623Z,-1.50
2018-01-15T02:40:23.030Z,-1.10
2018-01-15T02:42:49.463Z,-1.20
2018-01-15T02:45:15.840Z,-1.10
2018-01-15T02:47:42.275Z,-1.10
2018-01-15T02:50:09.410Z,-1.20
2018-01-15T02:52:35.813Z,-1.20
2018-01-15T02:55:02.203Z,-1.50
2018-01-15T02:57:28.594Z,-1.50
2018-01-15T02:59:54.990Z,-1.80
2018-01-15T03:02:21.383Z,-1.60
2018-01-15T03:04:48.496Z,-1.70
2018-01-15T03:07:14.884Z,-1.70
2018-01-15T03:09:41.296Z,-1.70
2018-01-15T03:12:08.491Z,-1.70
2018-01-15T03:14:34.926Z,-1.70
2018-01-15T03:17:01.296Z,-1.90
2018-01-15T03:19:27.670Z,-1.60
2018-01-15T03:21:54.095Z,-1.40
2018-01-15T03:24:20.466Z,-1.50
2018-01-15T03:26:46.862Z,-1.80
2018-01-15T03:29:13.290Z,-1.80
2018-01-15T03:31:39.726Z,-1.70
2018-01-15T03:34:06.101Z,-1.40
2018-01-15T03:36:32.500Z,-1.70
2018-01-15T03:38:58.902Z,-1.80
2018-01-15T03:41:26.031Z,-1.80
2018-01-15T03:43:52.423Z,-1.80
2018-01-15T03:46:18.804Z,-2.10
2018-01-15T03:48:45.186Z,-2.10
2018-01-15T03:51:11.566Z,-1.90
2018-01-15T03:53:38.034Z,-1.70
2018-01-15T03:56:04.429Z,-2.00
2018-01-15T03:58:30.815Z,-2.00
2018-01-15T04:00:57.213Z,-2.00
2018-01-15T04:03:24.338Z,-1.60
2018-01-15T04:05:50.730Z,-1.60
2018-01-15T04:08:17.112Z,-1.80
2018-01-15T04:10:43.488Z,-1.80
2018-01-15T04:13:09.862Z,-1.90
2018-01-15T04:15:36.233Z,-1.80
2018-01-15T04:18:02.627Z,-1.60
2018-01-15T04:20:28.983Z,-1.20
2018-01-15T04:22:56.106Z,-1.50
2018-01-15T04:25:22.477Z,-1.50
2018-01-15T04:27:48.878Z,-1.70
2018-01-15T04:30:15.341Z,-1.80
2018-01-15T04:32:42.003Z,-2.10
2018-01-15T04:35:08.414Z,-2.10
2018-01-15T04:37:34.797Z,-2.00
2018-01-15T04:40:01.233Z,-1.80
2018-01-15T04:42:27.604Z,-1.70
2018-01-15T04:44:54.738Z,-2.00
2018-01-15T04:47:21.898Z,-2.10
2018-01-15T04:49:48.277Z,-2.10
2018-01-15T04:52:14.668Z,-1.90
2018-01-15T04:54:41.055Z,-1.40
2018-01-15T04:57:07.589Z,-1.30
2018-01-15T04:59:33.937Z,-1.10
2018-01-15T05:02:00.318Z,-1.00
2018-01-15T05:04:26.760Z,-0.90
2018-01-15T05:06:53.171Z,-0.90
2018-01-15T05:09:19.623Z,-1.00
2018-01-15T05:11:46.055Z,-1.40
2018-01-15T05:14:12.442Z,-1.60
2018-01-15T05:16:39.549Z,-1.90
2018-01-15T05:19:05.935Z,-1.90
2018-01-15T05:21:32.314Z,-1.80
2018-01-15T05:23:58.709Z,-1.70
2018-01-15T05:26:25.077Z,-1.50
2018-01-15T05:28:51.437Z,-1.60
2018-01-15T05:31:18.582Z,-1.60
2018-01-15T05:33:44.956Z,-1.70
2018-01-15T05:36:11.347Z,-2.10
2018-01-15T05:38:37.723Z,-2.00
2018-01-15T05:41:04.167Z,-1.80
2018-01-15T05:43:30.569Z,-1.70
2018-01-15T05:45:56.942Z,-1.30
2018-01-15T05:48:23.343Z,-1.50
2018-01-15T05:50:49.754Z,-1.80
2018-01-15T05:53:16.859Z,-2.00
2018-01-15T05:55:43.239Z,-2.00
2018-01-15T05:58:10.389Z,-2.10
2018-01-15T06:00:37.783Z,-1.80
2018-01-15T06:03:04.216Z,-1.80
2018-01-15T06:05:30.600Z,-1.30
2018-01-15T06:07:57.025Z,-0.90
2018-01-15T06:10:24.157Z,-0.50
2018-01-15T06:12:52.018Z,-0.50
2018-01-15T06:15:18.424Z,-0.50
2018-01-15T06:17:44.854Z,-0.70
2018-01-15T06:20:11.249Z,-1.00
2018-01-15T06:22:38.375Z,-1.90
2018-01-15T06:25:04.775Z,-1.90
2018-01-15T06:27:31.158Z,-1.60
2018-01-15T06:29:58.311Z,-1.20
2018-01-15T06:32:25.417Z,-1.40
2018-01-15T06:34:51.794Z,-1.40
2018-01-15T06:37:18.917Z,-1.60
2018-01-15T06:39:46.042Z,-1.60
2018-01-15T06:42:12.435Z,-1.60
2018-01-15T06:44:38.806Z,-1.50
2018-01-15T06:47:05.178Z,-1.90
2018-01-15T06:49:32.488Z,-2.00
2018-01-15T06:51:58.911Z,-2.10
2018-01-15T06:54:25.313Z,-2.20
2018-01-15T06:56:52.449Z,-1.70
2018-01-15T06:59:19.557Z,-1.40
2018-01-15T07:01:46.006Z,-1.40
2018-01-15T07:04:12.417Z,-1.00
2018-01-15T07:06:38.783Z,-0.70
2018-01-15T07:09:05.930Z,-0.60
2018-01-15T07:11:32.322Z,-0.60
2018-01-15T07:13:58.724Z,-0.90
2018-01-15T07:16:25.194Z,-1.40
2018-01-15T07:18:51.585Z,-1.20
2018-01-15T07:21:17.993Z,-1.30
2018-01-15T07:23:44.392Z,-1.90
2018-01-15T07:26:10.792Z,-2.30
2018-01-15T07:28:37.231Z,-2.50
2018-01-15T07:31:03.602Z,-2.70
2018-01-15T07:33:29.992Z,-2.60
2018-01-15T07:35:56.365Z,-2.50
2018-01-15T07:38:22.767Z,-2.40
2018-01-15T07:40:49.159Z,-2.20
2018-01-15T07:43:16.290Z,-2.10
2018-01-15T07:45:42.693Z,-2.10
2018-01-15T07:48:09.069Z,-2.30
2018-01-15T07:50:35.464Z,-2.40
2018-01-15T07:53:01.858Z,-2.50
2018-01-15T07:55:28.353Z,-2.50
2018-01-15T07:57:54.722Z,-2.50
2018-01-15T08:00:21.108Z,-2.30
2018-01-15T08:02:47.498Z,-2.10
2018-01-15T08:05:13.912Z,-2.10
2018-01-15T08:07:40.306Z,-2.20
2018-01-15T08:10:06.684Z,-2.20
2018-01-15T08:12:33.062Z,-2.20
2018-01-15T08:14:59.499Z,-2.10
2018-01-15T08:17:25.905Z,-2.10
2018-01-15T08:19:52.282Z,-1.90
2018-01-15T08:22:18.659Z,-1.90
2018-01-15T08:24:45.032Z,-1.60
2018-01-15T08:27:11.436Z,-1.00
2018-01-15T08:29:37.849Z,-0.70
2018-01-15T08:32:04.230Z,-1.30
2018-01-15T08:34:32.094Z,-1.40
2018-01-15T08:36:58.530Z,-1.40
2018-01-15T08:39:24.931Z,-1.80
2018-01-15T08:41:51.349Z,-2.20
2018-01-15T08:44:17.734Z,-2.20
2018-01-15T08:46:44.886Z,-2.20
2018-01-15T08:49:11.325Z,-2.30
2018-01-15T08:51:38.463Z,-1.70
2018-01-15T08:54:05.612Z,-1.40
2018-01-15T08:56:31.994Z,-1.50
2018-01-15T08:58:58.369Z,-1.80
2018-01-15T09:01:24.789Z,-2.10
2018-01-15T09:03:51.202Z,-2.10
2018-01-15T09:06:17.582Z,-2.20
2018-01-15T09:08:44.742Z,-1.60
2018-01-15T09:11:11.130Z,-1.60
2018-01-15T09:13:38.996Z,-1.60
2018-01-15T09:16:05.376Z,-1.70
2018-01-15T09:18:32.536Z,-1.70
2018-01-15T09:20:58.919Z,-1.70
2018-01-15T09:23:25.389Z,-1.60
2018-01-15T09:25:51.783Z,-1.60
2018-01-15T09:28:18.170Z,-1.70
2018-01-15T09:30:44.560Z,-1.60
2018-01-15T09:33:10.964Z,-1.60
2018-01-15T09:35:37.361Z,-1.90
2018-01-15T09:38:03.752Z,-1.80
2018-01-15T09:40:30.143Z,-1.90
2018-01-15T09:42:56.526Z,-2.00
2018-01-15T09:45:22.904Z,-2.20
2018-01-15T09:47:50.102Z,-2.40
2018-01-15T09:50:16.511Z,-2.40
2018-01-15T09:52:42.896Z,-2.30
2018-01-15T09:55:09.293Z,-2.30
2018-01-15T09:57:35.691Z,-2.30
2018-01-15T10:00:02.166Z,-2.30
2018-01-15T10:02:28.556Z,-2.30
2018-01-15T10:04:54.983Z,-2.30
2018-01-15T10:07:21.365Z,-2.30
2018-01-15T10:09:47.763Z,-2.20
2018-01-15T10:12:14.150Z,-2.20
2018-01-15T10:14:40.616Z,-2.10
2018-01-15T10:17:07.105Z,-2.20
2018-01-15T10:19:34.246Z,-1.90
2018-01-15T10:22:01.386Z,-2.00
2018-01-15T10:24:27.798Z,-2.00
2018-01-15T10:26:54.171Z,-2.20
2018-01-15T10:29:21.300Z,-2.30
2018-01-15T10:31:48.432Z,-2.30
2018-01-15T10:34:14.838Z,-2.30
2018-01-15T10:36:41.246Z,-2.10
2018-01-15T10:39:07.646Z,-2.10
2018-01-15T10:41:34.023Z,-2.30
2018-01-15T10:44:00.450Z,-2.20
2018-01-15T10:46:26.841Z,-2.10
2018-01-15T10:48:53.234Z,-1.90
2018-01-15T10:51:19.651Z,-1.70
2018-01-15T10:53:46.050Z,-1.20
2018-01-15T10:56:13.176Z,-1.40
2018-01-15T10:58:39.554Z,-1.40
2018-01-15T11:01:11.903Z,-1.50
2018-01-15T11:03:39.048Z,-2.00
2018-01-15T11:06:06.244Z,-2.10
2018-01-15T11:08:32.635Z,-2.10
2018-01-15T11:10:59.771Z,-1.70
2018-01-15T11:13:26.169Z,-1.70
2018-01-15T11:15:52.588Z,-1.70
2018-01-15T11:18:19.012Z,-1.80
2018-01-15T11:20:45.429Z,-1.70
2018-01-15T11:23:11.878Z,-1.40
2018-01-15T11:25:38.360Z,-1.20
2018-01-15T11:28:04.773Z,-1.00
2018-01-15T11:30:31.168Z,-1.00
2018-01-15T11:32:57.563Z,-1.00
2018-01-15T11:35:23.956Z,-1.10
2018-01-15T11:37:50.356Z,-1.40
2018-01-15T11:40:17.489Z,-1.70
2018-01-15T11:42:43.898Z,-1.70
2018-01-15T11:45:10.303Z,-1.80
2018-01-15T11:47:36.706Z,-1.30
2018-01-15T11:50:03.831Z,-0.90
2018-01-15T11:52:30.973Z,-1.20
2018-01-15T11:54:58.122Z,-1.40
2018-01-15T11:57:25.281Z,-1.60
2018-01-15T11:59:52.404Z,-1.70
2018-01-15T12:02:18.809Z,-1.70
2018-01-15T12:04:45.184Z,-1.90
2018-01-15T12:07:11.574Z,-1.80
2018-01-15T12:09:37.963Z,-1.60
2018-01-15T12:12:05.129Z,-1.30
2018-01-15T12:14:31.550Z,-1.40
2018-01-15T12:16:57.945Z,-1.20
2018-01-15T12:19:24.342Z,-1.00
2018-01-15T12:21:50.727Z,-1.20
2018-01-15T12:24:17.158Z,-1.70
2018-01-15T12:26:43.542Z,-1.60
2018-01-15T12:29:09.943Z,-1.50
2018-01-15T12:31:36.413Z,-1.10
2018-01-15T12:34:03.005Z,-0.90
2018-01-15T12:36:30.158Z,-1.30
2018-01-15T12:38:56.573Z,-1.30
2018-01-15T12:41:22.945Z,-1.20
2018-01-15T12:43:49.339Z,-1.10
2018-01-15T12:46:15.726Z,-1.10
2018-01-15T12:48:42.129Z,-1.10
2018-01-15T12:51:08.538Z,-0.60
2018-01-15T12:53:35.665Z,0.00
2018-01-15T12:56:02.086Z,0.00
2018-01-15T12:58:28.515Z,0.10
2018-01-15T13:00:54.887Z,-0.50
2018-01-15T13:03:22.048Z,-0.50
2018-01-15T13:05:50.098Z,-0.80
2018-01-15T13:08:29.519Z,-0.70
2018-01-15T13:10:55.923Z,-0.70
2018-01-15T13:13:22.306Z,-0.50
2018-01-15T13:15:49.442Z,-0.70
2018-01-15T13:18:15.813Z,-0.70
2018-01-15T13:20:42.216Z,-0.80
2018-01-15T13:23:08.639Z,-0.90
2018-01-15T13:25:35.820Z,-1.00
2018-01-15T13:28:02.946Z,-1.10
2018-01-15T13:30:29.324Z,-1.10
2018-01-15T13:32:55.780Z,-1.40
2018-01-15T13:35:22.164Z,-1.30
2018-01-15T13:37:48.648Z,-1.30
2018-01-15T13:40:15.121Z,-1.30
2018-01-15T13:42:41.545Z,-1.50
2018-01-15T13:45:09.406Z,-1.30
2018-01-15T13:47:35.795Z,-1.20
2018-01-15T13:50:02.193Z,-1.40
2018-01-15T13:52:29.323Z,-1.20
2018-01-15T13:54:55.694Z,-1.20
2018-01-15T13:57:22.120Z,-1.00
2018-01-15T13:59:49.269Z,-0.90
2018-01-15T14:02:15.634Z,-0.90
2018-01-15T14:04:42.032Z,-0.90
2018-01-15T14:07:08.433Z,-1.20
2018-01-15T14:09:35.562Z,-1.00
2018-01-15T14:12:01.962Z,-1.10
2018-01-15T14:14:29.129Z,-1.40
2018-01-15T14:16:55.538Z,-1.50
2018-01-15T14:19:21.927Z,-1.60
2018-01-15T14:21:48.311Z,-1.30
2018-01-15T14:24:14.688Z,-1.10
2018-01-15T14:26:41.814Z,-0.50
2018-01-15T14:29:08.189Z,-0.50
2018-01-15T14:31:35.530Z,-0.30
2018-01-15T14:34:01.984Z,-0.30
2018-01-15T14:36:28.397Z,-0.60
2018-01-15T14:38:55.527Z,-0.20
2018-01-15T14:41:21.903Z,-0.20
2018-01-15T14:43:48.301Z,-0.10
2018-01-15T14:46:14.761Z,0.10
2018-01-15T14:48:41.152Z,-0.10
2018-01-15T14:51:07.628Z,-0.30
2018-01-15T14:53:34.047Z,0.00
2018-01-15T14:56:00.443Z,0.10
2018-01-15T14:58:26.828Z,0.20
2018-01-15T15:00:53.979Z,0.10
2018-01-15T15:03:21.133Z,0.10
2018-01-15T15:05:47.533Z,0.10
2018-01-15T15:08:13.906Z,-0.10
2018-01-15T15:10:40.297Z,-0.90
2018-01-15T15:13:07.487Z,-0.90
2018-01-15T15:15:33.994Z,-0.90
2018-01-15T15:18:01.151Z,-0.40
2018-01-15T15:20:28.267Z,-0.20
2018-01-15T15:22:54.741Z,-0.30
2018-01-15T15:25:21.141Z,-0.30
2018-01-15T15:27:47.789Z,-0.30
2018-01-15T15:30:14.244Z,-0.50
2018-01-15T15:32:41.391Z,-0.50
2018-01-15T15:35:07.948Z,-0.50
2018-01-15T15:37:34.353Z,-0.70
2018-01-15T15:40:00.777Z,-1.00
2018-01-15T15:42:27.918Z,-0.80
2018-01-15T15:44:55.130Z,-0.80
2018-01-15T15:47:21.758Z,-0.90
2018-01-15T15:49:48.236Z,-0.80
2018-01-15T15:52:14.647Z,-0.90
2018-01-15T15:54:41.031Z,-0.60
2018-01-15T15:57:07.411Z,-0.60
2018-01-15T15:59:33.829Z,-0.50
2018-01-15T16:02:00.202Z,-0.90
2018-01-15T16:04:26.556Z,-0.90
2018-01-15T16:06:53.685Z,-1.30
2018-01-15T16:09:20.832Z,-1.30
2018-01-15T16:11:47.990Z,-1.40
2018-01-15T16:14:15.130Z,-1.50
2018-01-15T16:16:41.622Z,-1.50
2018-01-15T16:19:08.022Z,-1.40
2018-01-15T16:21:34.535Z,-1.50
2018-01-15T16:24:00.980Z,-1.40
2018-01-15T16:26:27.423Z,-1.20
2018-01-15T16:28:53.862Z,-1.10
2018-01-15T16:31:20.383Z,-1.20
2018-01-15T16:33:46.844Z,-1.20
2018-01-15T16:36:13.291Z,-1.20
2018-01-15T16:38:39.726Z,-1.10
2018-01-15T16:41:06.138Z,-1.20
2018-01-15T16:43:32.568Z,-1.20
2018-01-15T16:45:58.970Z,-1.60
2018-01-15T16:48:26.124Z,-1.90
2018-01-15T16:50:52.600Z,-1.90
2018-01-15T16:53:19.102Z,-1.80
2018-01-15T16:55:45.551Z,-1.60
2018-01-15T16:58:11.975Z,-1.20
2018-01-15T17:00:38.451Z,-1.10
2018-01-15T17:03:04.904Z,-1.40
2018-01-15T17:05:31.294Z,-1.60
2018-01-15T17:07:57.707Z,-1.70
2018-01-15T17:10:24.145Z,-1.60
2018-01-15T17:12:50.564Z,-1.80
2018-01-15T17:15:17.003Z,-1.80
2018-01-15T17:17:43.432Z,-1.80
2018-01-15T17:20:09.822Z,-1.80
2018-01-15T17:22:36.290Z,-1.80
2018-01-15T17:25:02.703Z,-1.90
2018-01-15T17:27:29.093Z,-2.10
2018-01-15T17:29:55.482Z,-2.20
2018-01-15T17:32:21.913Z,-2.20
2018-01-15T17:34:49.025Z,-2.20
2018-01-15T17:37:15.442Z,-2.20
2018-01-15T17:39:41.826Z,-2.20
2018-01-15T17:42:08.955Z,-2.30
2018-01-15T17:44:36.828Z,-2.00
2018-01-15T17:47:03.213Z,-2.00
2018-01-15T17:49:29.616Z,-1.80
2018-01-15T17:51:56.059Z,-2.10
2018-01-15T17:54:22.594Z,-2.00
2018-01-15T17:56:48.967Z,-2.00
2018-01-15T17:59:15.411Z,-2.00
2018-01-15T18:01:41.809Z,-1.80
2018-01-15T18:04:08.194Z,-2.00
2018-01-15T18:06:35.358Z,-2.20
2018-01-15T18:09:02.596Z,-2.10
2018-01-15T18:11:29.729Z,-2.20
2018-01-15T18:13:56.127Z,-2.20
2018-01-15T18:16:22.530Z,-2.20
2018-01-15T18:18:48.917Z,-1.80
2018-01-15T18:21:15.345Z,-2.00
2018-01-15T18:23:41.727Z,-2.10
2018-01-15T18:26:08.193Z,-1.90
2018-01-15T18:28:34.596Z,-2.20
2018-01-15T18:31:00.999Z,-2.20
2018-01-15T18:33:28.180Z,-1.90
2018-01-15T18:35:54.583Z,-1.90
2018-01-15T18:38:20.984Z,-1.90
2018-01-15T18:40:49.710Z,-2.20
2018-01-15T18:43:16.121Z,-2.20
2018-01-15T18:45:43.403Z,-2.30
2018-01-15T18:48:09.799Z,-2.60
2018-01-15T18:50:36.196Z,-2.60
2018-01-15T18:53:02.598Z,-2.50
2018-01-15T18:55:28.994Z,-2.40
2018-01-15T18:57:55.392Z,-2.40
2018-01-15T19:00:21.846Z,-2.40
2018-01-15T19:02:48.241Z,-2.30
2018-01-15T19:05:14.613Z,-2.30
2018-01-15T19:07:41.015Z,-2.40
2018-01-15T19:10:07.385Z,-2.50
2018-01-15T19:12:35.271Z,-2.80
2018-01-15T19:15:02.427Z,-2.60
2018-01-15T19:17:29.546Z,-2.10
2018-01-15T19:19:55.922Z,-2.20
2018-01-15T19:22:22.290Z,-2.20
2018-01-15T19:24:48.701Z,-2.30
2018-01-15T19:27:15.130Z,-2.10
2018-01-15T19:29:41.659Z,-1.90
2018-01-15T19:32:08.160Z,-2.00
2018-01-15T19:34:36.380Z,-2.20
2018-01-15T19:37:03.725Z,-2.20
2018-01-15T19:39:30.161Z,-2.00
2018-01-15T19:41:58.422Z,-1.80
2018-01-15T19:44:30.864Z,-1.70
2018-01-15T19:47:04.754Z,-2.30
2018-01-15T19:49:37.339Z,-2.30
2018-01-15T19:52:09.969Z,-2.30
2018-01-15T19:54:42.546Z,-2.00
2018-01-15T19:57:14.977Z,-2.20
2018-01-15T19:59:47.597Z,-2.40
2018-01-15T20:02:19.921Z,-2.40
2018-01-15T20:04:52.278Z,-2.40
2018-01-15T20:07:24.647Z,-2.40
2018-01-15T20:09:56.982Z,-2.40
2018-01-15T20:12:23.415Z,-2.50
2018-01-15T20:14:49.930Z,-2.20
2018-01-15T20:17:17.051Z,-2.10
2018-01-15T20:19:43.432Z,-2.10
2018-01-15T20:22:09.840Z,-2.00
2018-01-15T20:24:36.991Z,-2.10
2018-01-15T20:27:04.164Z,-2.00
2018-01-15T20:29:30.592Z,-2.10
2018-01-15T20:31:57.010Z,-1.90
2018-01-15T20:34:24.115Z,-2.50
2018-01-15T20:36:50.529Z,-2.50
2018-01-15T20:39:16.943Z,-2.70
2018-01-15T20:41:43.346Z,-2.70
2018-01-15T20:44:10.495Z,-2.70
2018-01-15T20:46:37.632Z,-2.90
2018-01-15T20:49:04.095Z,-2.90
2018-01-15T20:51:30.489Z,-3.00
2018-01-15T20:53:56.871Z,-2.70
2018-01-15T20:56:23.319Z,-2.70
2018-01-15T20:58:49.704Z,-2.30
2018-01-15T21:01:16.813Z,-1.50
2018-01-15T21:03:43.206Z,-1.50
2018-01-15T21:06:09.646Z,-1.50
2018-01-15T21:08:36.037Z,-1.50
2018-01-15T21:11:02.426Z,-1.80
2018-01-15T21:13:29.497Z,-2.00
2018-01-15T21:15:55.900Z,-2.40
2018-01-15T21:18:22.317Z,-2.60
2018-01-15T21:20:48.713Z,-2.30
2018-01-15T21:23:15.120Z,-2.10
2018-01-15T21:25:41.531Z,-2.10
2018-01-15T21:28:07.948Z,-2.30
2018-01-15T21:30:34.326Z,-2.50
2018-01-15T21:33:00.738Z,-2.70
2018-01-15T21:35:27.149Z,-2.70
2018-01-15T21:37:53.545Z,-2.70
2018-01-15T21:40:20.462Z,-2.70
2018-01-15T21:42:46.847Z,-2.70
2018-01-15T21:45:13.247Z,-2.70
2018-01-15T21:47:39.634Z,-2.80
2018-01-15T21:50:06.027Z,-2.80
2018-01-15T21:52:33.158Z,-2.50
2018-01-15T21:54:59.539Z,-2.50
2018-01-15T21:57:25.945Z,-2.50
2018-01-15T21:59:53.089Z,-2.50
2018-01-15T22:02:20.285Z,-2.10
2018-01-15T22:04:46.669Z,-2.10
2018-01-15T22:07:13.842Z,-1.90
2018-01-15T22:09:40.238Z,-1.90
2018-01-15T22:12:06.615Z,-2.00
2018-01-15T22:14:33.013Z,-2.50
2018-01-15T22:17:00.161Z,-2.70
2018-01-15T22:19:26.533Z,-2.70
2018-01-15T22:21:52.934Z,-2.70
2018-01-15T22:24:20.046Z,-2.30
2018-01-15T22:26:46.433Z,-2.40
2018-01-15T22:29:12.829Z,-2.60
2018-01-15T22:31:39.996Z,-2.50
2018-01-15T22:34:07.135Z,-2.50
2018-01-15T22:36:33.593Z,-2.50
2018-01-15T22:38:59.971Z,-2.50
2018-01-15T22:41:26.357Z,-2.80
2018-01-15T22:43:52.736Z,-3.00
2018-01-15T22:46:19.165Z,-2.80
2018-01-15T22:48:45.570Z,-2.60
2018-01-15T22:51:11.982Z,-2.70
2018-01-15T22:53:38.362Z,-2.50
2018-01-15T22:56:04.767Z,-2.40
2018-01-15T22:58:31.161Z,-2.30
2018-01-15T23:00:58.305Z,-2.70
2018-01-15T23:03:24.700Z,-2.70
2018-01-15T23:05:51.082Z,-2.60
2018-01-15T23:08:18.195Z,-2.40
2018-01-15T23:10:44.804Z,-2.40
2018-01-15T23:13:11.201Z,-2.70
2018-01-15T23:15:37.590Z,-2.70
2018-01-15T23:18:03.999Z,-2.40
2018-01-15T23:20:30.403Z,-2.70
2018-01-15T23:22:57.592Z,-2.90
2018-01-15T23:25:23.991Z,-2.90
2018-01-15T23:27:50.406Z,-2.50
2018-01-15T23:30:17.536Z,-2.90
2018-01-15T23:32:43.944Z,-2.90
2018-01-15T23:35:10.353Z,-3.00
2018-01-15T23:37:36.729Z,-3.00
2018-01-15T23:40:03.119Z,-2.80
2018-01-15T23:42:29.527Z,-2.60
2018-01-15T23:44:55.921Z,-2.20
2018-01-15T23:47:22.313Z,-2.50
2018-01-15T23:49:48.723Z,-2.30
2018-01-15T23:52:15.160Z,-2.10
2018-01-15T23:54:41.572Z,-2.40
2018-01-15T23:57:09.099Z,-2.20
2018-01-15T23:59:35.504Z,-2.20
